createdAt,value
2023-05-10T00:00:29.905Z,100931.47
2023-05-10T00:03:33.125Z,100935.75
2023-05-10T00:08:53.145Z,100938.47
2023-05-10T00:11:43.751Z,100932.63
2023-05-10T00:14:48.835Z,100925.03
2023-05-10T00:17:49.725Z,100925.22
2023-05-10T00:23:14.780Z,100929.50
2023-05-10T00:26:03.807Z,100907.88
2023-05-10T00:29:09.962Z,100915.00
2023-05-10T00:32:11.458Z,100908.88
2023-05-10T00:35:16.420Z,100907.63
2023-05-10T00:38:22.865Z,100904.22
2023-05-10T00:41:24.643Z,100910.25
2023-05-10T00:44:29.665Z,100903.00
2023-05-10T00:47:34.655Z,100900.38
2023-05-10T00:50:37.056Z,100902.53
2023-05-10T00:53:44.329Z,100910.19
2023-05-10T00:56:49.826Z,100906.69
2023-05-10T00:59:51.577Z,100903.03
2023-05-10T01:02:57.152Z,100905.59
2023-05-10T01:05:59.479Z,100908.47
2023-05-10T01:09:06.559Z,100908.66
2023-05-10T01:12:09.037Z,100905.94
2023-05-10T01:15:14.983Z,100902.41
2023-05-10T01:18:18.809Z,100907.69
2023-05-10T01:21:23.003Z,100904.00
2023-05-10T01:24:28.511Z,100901.28
2023-05-10T01:27:43.064Z,100892.41
2023-05-10T01:31:35.792Z,100891.56
2023-05-10T01:34:38.419Z,100891.25
2023-05-10T01:37:43.840Z,100891.19
2023-05-10T01:40:50.290Z,100892.31
2023-05-10T01:43:58.204Z,100897.66
2023-05-10T01:46:58.298Z,100895.22
2023-05-10T01:50:03.199Z,100895.47
2023-05-10T01:53:09.195Z,100905.75
2023-05-10T01:56:11.912Z,100895.53
2023-05-10T01:59:14.093Z,100901.59
2023-05-10T02:02:19.766Z,100898.38
2023-05-10T02:05:26.697Z,100894.13
2023-05-10T02:08:29.503Z,100886.28
2023-05-10T02:11:32.903Z,100900.25
2023-05-10T02:14:39.631Z,100895.47
2023-05-10T02:17:42.518Z,100887.13
2023-05-10T02:20:48.326Z,100896.84
2023-05-10T02:23:52.445Z,100898.69
2023-05-10T02:26:56.670Z,100893.47
2023-05-10T02:29:58.993Z,100902.97
2023-05-10T02:33:07.007Z,100901.03
2023-05-10T02:36:09.804Z,100897.47
2023-05-10T02:39:14.703Z,100892.78
2023-05-10T02:42:18.256Z,100898.53
2023-05-10T02:45:19.260Z,100900.19
2023-05-10T02:48:23.857Z,100904.28
2023-05-10T02:51:30.326Z,100905.88
2023-05-10T02:54:29.569Z,100897.94
2023-05-10T02:57:36.947Z,100894.28
2023-05-10T03:00:42.350Z,100890.84
2023-05-10T03:03:47.845Z,100889.91
2023-05-10T03:06:52.389Z,100889.84
2023-05-10T03:09:54.787Z,100894.81
2023-05-10T03:13:23.153Z,100890.47
2023-05-10T03:20:08.196Z,100883.94
2023-05-10T03:27:20.228Z,100891.06
2023-05-10T03:30:23.546Z,100885.75
2023-05-10T03:33:28.855Z,100884.03
2023-05-10T03:36:30.083Z,100878.84
2023-05-10T03:39:36.850Z,100880.44
2023-05-10T03:42:41.619Z,100882.00
2023-05-10T03:45:46.785Z,100884.53
2023-05-10T03:48:48.745Z,100881.88
2023-05-10T03:51:53.665Z,100881.81
2023-05-10T03:54:58.656Z,100880.06
2023-05-10T03:58:05.205Z,100887.00
2023-05-10T04:01:07.378Z,100880.91
2023-05-10T04:04:12.749Z,100874.72
2023-05-10T04:07:15.300Z,100884.16
2023-05-10T04:10:20.314Z,100882.66
2023-05-10T04:13:24.370Z,100879.28
2023-05-10T04:16:29.749Z,100883.81
2023-05-10T04:19:30.274Z,100882.91
2023-05-10T04:22:35.538Z,100882.06
2023-05-10T04:25:42.114Z,100879.31
2023-05-10T04:28:48.678Z,100878.75
2023-05-10T04:31:51.950Z,100883.44
2023-05-10T04:34:52.400Z,100882.72
2023-05-10T04:37:57.093Z,100875.38
2023-05-10T04:41:01.960Z,100887.78
2023-05-10T04:44:08.314Z,100883.28
2023-05-10T04:47:12.637Z,100878.84
2023-05-10T04:50:15.269Z,100894.34
2023-05-10T04:53:20.714Z,100893.56
2023-05-10T04:56:26.004Z,100891.59
2023-05-10T04:59:27.963Z,100896.88
2023-05-10T05:02:34.421Z,100898.06
2023-05-10T05:05:36.370Z,100897.94
2023-05-10T05:08:41.410Z,100897.34
2023-05-10T05:11:46.614Z,100901.59
2023-05-10T05:14:51.769Z,100893.78
2023-05-10T05:17:19.946Z,100900.50
2023-05-10T05:20:09.533Z,100900.38
2023-05-10T05:23:01.755Z,100904.50
2023-05-10T05:25:29.950Z,100904.50
2023-05-10T05:28:09.978Z,100902.72
2023-05-10T05:30:38.170Z,100904.22
2023-05-10T05:33:16.481Z,100906.56
2023-05-10T05:38:37.115Z,100907.19
2023-05-10T05:41:28.990Z,100914.81
2023-05-10T05:43:57.236Z,100916.56
2023-05-10T05:46:34.496Z,100916.44
2023-05-10T05:49:02.699Z,100918.81
2023-05-10T05:51:44.310Z,100915.91
2023-05-10T05:54:12.501Z,100919.28
2023-05-10T05:56:49.638Z,100915.19
2023-05-10T05:59:20.862Z,100923.03
2023-05-10T06:02:08.000Z,100929.94
2023-05-10T06:05:01.400Z,100930.19
2023-05-10T06:08:02.093Z,100931.06
2023-05-10T06:11:07.110Z,100937.84
2023-05-10T06:13:36.396Z,100935.16
2023-05-10T06:16:23.571Z,100938.50
2023-05-10T06:19:22.417Z,100934.69
2023-05-10T06:22:24.916Z,100941.41
2023-05-10T06:25:28.318Z,100956.47
2023-05-10T06:28:34.490Z,100952.00
2023-05-10T06:31:39.223Z,100959.38
2023-05-10T06:34:45.731Z,100960.91
2023-05-10T06:37:44.705Z,100964.47
2023-05-10T06:40:52.283Z,100962.06
2023-05-10T06:43:56.694Z,100964.72
2023-05-10T06:46:58.826Z,100964.75
2023-05-10T06:50:04.303Z,100966.41
2023-05-10T06:53:09.392Z,100966.69
2023-05-10T06:56:15.838Z,100965.88
2023-05-10T06:59:18.339Z,100968.34
2023-05-10T07:02:21.058Z,100970.31
2023-05-10T07:05:26.159Z,100967.09
2023-05-10T07:08:23.385Z,100968.09
2023-05-10T07:11:34.594Z,100985.00
2023-05-10T07:14:41.130Z,100973.69
2023-05-10T07:17:45.524Z,100976.97
2023-05-10T07:20:47.840Z,100981.19
2023-05-10T07:23:52.799Z,100979.38
2023-05-10T07:26:57.908Z,100970.75
2023-05-10T07:30:01.730Z,100977.88
2023-05-10T07:33:07.182Z,100977.03
2023-05-10T07:36:09.206Z,100972.09
2023-05-10T07:43:19.629Z,100974.22
2023-05-10T07:46:55.630Z,100980.34
2023-05-10T07:49:38.280Z,100974.53
2023-05-10T07:52:30.965Z,100971.19
2023-05-10T07:58:41.891Z,100960.44
2023-05-10T08:01:57.526Z,100960.59
2023-05-10T08:04:50.439Z,100958.53
2023-05-10T08:07:51.703Z,100960.78
2023-05-10T08:10:56.983Z,100958.38
2023-05-10T08:14:01.744Z,100964.69
2023-05-10T08:17:08.459Z,100964.28
2023-05-10T08:20:11.394Z,100971.41
2023-05-10T08:23:17.093Z,100975.44
2023-05-10T08:26:18.934Z,100977.66
2023-05-10T08:29:24.546Z,100964.44
2023-05-10T08:32:26.994Z,100971.63
2023-05-10T08:35:34.337Z,100977.81
2023-05-10T08:38:14.860Z,100976.47
2023-05-10T08:40:44.776Z,100969.88
2023-05-10T08:43:47.389Z,100975.06
2023-05-10T08:49:52.988Z,100985.00
2023-05-10T08:52:55.045Z,100981.72
2023-05-10T08:55:46.363Z,100984.81
2023-05-10T08:59:06.269Z,100980.47
2023-05-10T09:02:09.788Z,100976.88
2023-05-10T09:05:17.143Z,100985.28
2023-05-10T09:08:20.965Z,100979.59
2023-05-10T09:11:23.661Z,100980.59
2023-05-10T09:14:19.963Z,100978.94
2023-05-10T09:17:31.691Z,100986.53
2023-05-10T09:20:36.860Z,100984.69
2023-05-10T09:23:48.559Z,100988.94
2023-05-10T09:26:49.671Z,100990.03
2023-05-10T09:29:48.616Z,100996.38
2023-05-10T09:32:53.785Z,100997.28
2023-05-10T09:40:03.956Z,100991.56
2023-05-10T09:43:06.953Z,101011.16
2023-05-10T09:46:11.916Z,101004.41
2023-05-10T09:49:17.037Z,101001.19
2023-05-10T09:52:22.011Z,101003.47
2023-05-10T09:55:12.417Z,101001.84
2023-05-10T09:58:27.110Z,100998.81
2023-05-10T10:01:32.889Z,101012.22
2023-05-10T10:04:37.268Z,101013.59
2023-05-10T10:07:41.697Z,101012.09
2023-05-10T10:10:50.552Z,101009.03
2023-05-10T10:13:52.262Z,101012.19
2023-05-10T10:17:06.622Z,101008.84
2023-05-10T10:20:00.597Z,101001.69
2023-05-10T10:23:02.732Z,101009.91
2023-05-10T10:26:07.096Z,101007.72
2023-05-10T10:29:12.512Z,101005.69
2023-05-10T10:32:14.995Z,101014.63
2023-05-10T10:35:19.770Z,101013.38
2023-05-10T10:41:31.381Z,101009.34
2023-05-10T10:44:41.562Z,101014.47
2023-05-10T10:47:38.431Z,101021.69
2023-05-10T10:50:43.090Z,101007.91
2023-05-10T10:53:49.922Z,101006.09
2023-05-10T11:10:31.397Z,101014.38
2023-05-10T11:13:14.092Z,101015.03
2023-05-10T11:16:09.431Z,101011.44
2023-05-10T11:19:29.377Z,101022.06
2023-05-10T11:22:29.541Z,101024.34
2023-05-10T11:29:03.202Z,101020.59
2023-05-10T11:35:23.925Z,101013.81
2023-05-10T11:42:13.605Z,101005.38
2023-05-10T11:46:00.988Z,101009.50
2023-05-10T11:48:59.514Z,101012.53
2023-05-10T11:51:30.815Z,101014.50
2023-05-10T11:58:17.180Z,101012.19
2023-05-10T12:03:47.101Z,101011.06
2023-05-10T12:06:33.078Z,101015.50
2023-05-10T12:09:01.632Z,101022.03
2023-05-10T12:12:05.048Z,101013.50
2023-05-10T12:14:40.902Z,101007.38
2023-05-10T12:17:14.220Z,101005.91
2023-05-10T12:19:48.286Z,101006.56
2023-05-10T12:22:19.519Z,101002.09
2023-05-10T12:24:56.960Z,101006.22
2023-05-10T12:27:58.016Z,101007.91
2023-05-10T12:31:04.558Z,101002.22
2023-05-10T12:33:55.951Z,101004.00
2023-05-10T12:36:27.055Z,101001.22
2023-05-10T12:39:16.894Z,101002.13
2023-05-10T12:42:18.997Z,101021.22
2023-05-10T12:45:23.081Z,101011.59
2023-05-10T12:48:29.914Z,101008.53
2023-05-10T12:51:34.639Z,101006.94
2023-05-10T12:54:30.238Z,101006.56
2023-05-10T12:57:34.775Z,101014.78
2023-05-10T13:00:18.623Z,101014.38
2023-05-10T13:03:09.061Z,101017.56
2023-05-10T13:05:52.518Z,101013.44
2023-05-10T13:08:58.653Z,101007.91
2023-05-10T13:12:00.673Z,101005.97
2023-05-10T13:14:29.643Z,101005.44
2023-05-10T13:17:10.003Z,101012.31
2023-05-10T13:20:16.768Z,100998.53
2023-05-10T13:23:17.106Z,101002.94
2023-05-10T13:26:22.697Z,101005.97
2023-05-10T13:29:22.384Z,101010.41
2023-05-10T13:32:20.676Z,101016.28
2023-05-10T13:34:57.495Z,100995.56
2023-05-10T13:37:42.377Z,101007.88
2023-05-10T13:40:34.622Z,101016.31
2023-05-10T13:43:10.523Z,101010.66
2023-05-10T13:45:50.726Z,101012.03
2023-05-10T13:48:52.393Z,101002.03
2023-05-10T13:54:13.508Z,101022.06
2023-05-10T13:57:07.640Z,101015.72
2023-05-10T14:00:23.701Z,101010.38
2023-05-10T14:03:19.530Z,101014.19
2023-05-10T14:06:17.630Z,101008.47
2023-05-10T14:09:26.430Z,101000.38
2023-05-10T14:12:35.990Z,101001.00
2023-05-10T14:15:55.314Z,101003.31
2023-05-10T14:19:05.099Z,101000.25
2023-05-10T14:21:46.568Z,100999.13
2023-05-10T14:24:55.328Z,101001.91
2023-05-10T14:28:28.960Z,100993.25
2023-05-10T14:31:04.355Z,100992.84
2023-05-10T14:33:32.545Z,100992.66
2023-05-10T14:36:01.063Z,100982.63
2023-05-10T14:38:32.659Z,100984.06
2023-05-10T14:41:06.859Z,100981.41
2023-05-10T14:43:35.336Z,100984.25
2023-05-10T14:46:13.745Z,100986.63
2023-05-10T14:48:42.000Z,100989.47
2023-05-10T14:51:23.013Z,100979.16
2023-05-10T14:53:51.345Z,100989.22
2023-05-10T14:56:19.722Z,100978.34
2023-05-10T14:58:52.306Z,100974.75
2023-05-10T15:01:31.793Z,100974.50
2023-05-10T15:04:00.635Z,100971.56
2023-05-10T15:06:42.646Z,100975.97
2023-05-10T15:09:10.960Z,100971.41
2023-05-10T15:11:52.914Z,100977.38
2023-05-10T15:14:21.193Z,100973.00
2023-05-10T15:16:59.828Z,100970.19
2023-05-10T15:19:28.463Z,100961.13
2023-05-10T15:22:06.764Z,100970.19
2023-05-10T15:24:37.654Z,100968.94
2023-05-10T15:27:11.920Z,100966.19
2023-05-10T15:29:40.422Z,100969.28
2023-05-10T15:32:27.051Z,100974.94
2023-05-10T15:34:55.447Z,100969.34
2023-05-10T15:37:26.990Z,100976.88
2023-05-10T15:39:56.324Z,100971.75
2023-05-10T15:42:34.531Z,100977.13
2023-05-10T15:45:02.814Z,100977.13
2023-05-10T15:47:41.767Z,100972.59
2023-05-10T15:50:11.535Z,100973.16
2023-05-10T15:52:39.872Z,100974.63
2023-05-10T15:55:13.308Z,100979.50
2023-05-10T15:57:41.849Z,100971.34
2023-05-10T16:00:11.687Z,100972.38
2023-05-10T16:02:44.356Z,100978.06
2023-05-10T16:05:14.033Z,100973.56
2023-05-10T16:07:45.525Z,100976.31
2023-05-10T16:10:13.913Z,100972.41
2023-05-10T16:12:44.962Z,100975.91
2023-05-10T16:15:13.619Z,100982.91
2023-05-10T16:17:43.469Z,100974.78
2023-05-10T16:20:12.386Z,100972.06
2023-05-10T16:22:43.298Z,100974.97
2023-05-10T16:25:13.699Z,100974.38
2023-05-10T16:27:43.186Z,100976.88
2023-05-10T16:30:11.830Z,100967.78
2023-05-10T16:32:41.097Z,100966.81
2023-05-10T16:35:11.324Z,100975.91
2023-05-10T16:37:39.816Z,100977.50
2023-05-10T16:40:09.472Z,100977.31
2023-05-10T16:42:37.919Z,100974.50
2023-05-10T16:45:09.301Z,100981.50
2023-05-10T16:47:38.229Z,100974.94
2023-05-10T16:50:08.422Z,100983.94
2023-05-10T16:52:38.731Z,100984.38
2023-05-10T16:55:07.865Z,100992.84
2023-05-10T16:57:36.052Z,101001.13
2023-05-10T17:00:05.212Z,100992.00
2023-05-10T17:02:33.523Z,100997.69
2023-05-10T17:05:01.864Z,100998.59
2023-05-10T17:07:30.944Z,100989.44
2023-05-10T17:10:00.728Z,101000.28
2023-05-10T17:12:29.215Z,100993.84
2023-05-10T17:14:57.526Z,100993.00
2023-05-10T17:17:44.118Z,100989.72
2023-05-10T17:20:13.966Z,101000.16
2023-05-10T17:22:43.162Z,100996.88
2023-05-10T17:25:12.974Z,100995.28
2023-05-10T17:27:41.361Z,100999.31
2023-05-10T17:30:10.627Z,101002.94
2023-05-10T17:32:38.835Z,101000.41
2023-05-10T17:35:08.377Z,101000.63
2023-05-10T17:37:36.640Z,101003.47
2023-05-10T17:40:07.460Z,100996.25
2023-05-10T17:42:37.163Z,100993.00
2023-05-10T17:45:05.735Z,100992.72
2023-05-10T17:47:34.156Z,101000.84
2023-05-10T17:50:02.454Z,100997.09
2023-05-10T17:52:33.359Z,101002.00
2023-05-10T17:55:02.564Z,101007.41
2023-05-10T17:57:30.978Z,101001.84
2023-05-10T18:00:09.085Z,100993.47
2023-05-10T18:02:38.273Z,101004.09
2023-05-10T18:05:07.347Z,100997.09
2023-05-10T18:07:36.151Z,101000.63
2023-05-10T18:10:05.185Z,101003.47
2023-05-10T18:12:33.981Z,100997.88
2023-05-10T18:15:10.714Z,100994.81
2023-05-10T18:17:39.011Z,100993.88
2023-05-10T18:20:08.576Z,100998.81
2023-05-10T18:22:37.192Z,100990.63
2023-05-10T18:25:06.063Z,100995.28
2023-05-10T18:27:36.392Z,100991.47
2023-05-10T18:30:07.037Z,101003.78
2023-05-10T18:32:38.474Z,100990.00
2023-05-10T18:35:07.717Z,100992.63
2023-05-10T18:37:39.835Z,100993.47
2023-05-10T18:40:12.635Z,100989.38
2023-05-10T18:42:47.784Z,100986.84
2023-05-10T18:45:16.628Z,100993.91
2023-05-10T18:47:55.105Z,100996.53
2023-05-10T18:50:24.719Z,100994.19
2023-05-10T18:53:02.267Z,100995.16
2023-05-10T18:55:30.815Z,100988.19
2023-05-10T18:58:08.564Z,100988.31
2023-05-10T19:00:36.789Z,100984.16
2023-05-10T19:03:15.121Z,100990.56
2023-05-10T19:05:43.442Z,100987.47
2023-05-10T19:08:24.194Z,100987.47
2023-05-10T19:11:26.311Z,100993.47
2023-05-10T19:14:31.601Z,100988.31
2023-05-10T19:17:33.804Z,100992.03
2023-05-10T19:20:05.031Z,100987.25
2023-05-10T19:22:47.283Z,100999.44
2023-05-10T19:25:21.750Z,100995.16
2023-05-10T19:27:51.939Z,100993.31
2023-05-10T19:30:20.325Z,100985.69
2023-05-10T19:32:48.553Z,100995.28
2023-05-10T19:35:18.697Z,100989.13
2023-05-10T19:37:47.433Z,100994.53
2023-05-10T19:40:17.484Z,100992.75
2023-05-10T19:42:45.780Z,100994.31
2023-05-10T19:45:15.783Z,100992.47
2023-05-10T19:47:44.596Z,100995.28
2023-05-10T19:50:13.972Z,100995.34
2023-05-10T19:52:43.563Z,101000.63
2023-05-10T19:55:12.517Z,101000.00
2023-05-10T19:57:40.655Z,100996.81
2023-05-10T20:00:13.180Z,100994.44
2023-05-10T20:02:41.702Z,101001.53
2023-05-10T20:05:10.567Z,100997.50
2023-05-10T20:07:38.618Z,100994.13
2023-05-10T20:10:09.792Z,100999.34
2023-05-10T20:12:38.022Z,100989.69
2023-05-10T20:15:08.633Z,100993.91
2023-05-10T20:17:37.550Z,101000.81
2023-05-10T20:20:06.577Z,100991.09
2023-05-10T20:22:34.810Z,100992.81
2023-05-10T20:25:02.990Z,100991.97
2023-05-10T20:27:32.507Z,100996.91
2023-05-10T20:30:02.020Z,100998.59
2023-05-10T20:32:30.562Z,101002.00
2023-05-10T20:34:58.782Z,101001.22
2023-05-10T20:37:28.292Z,101002.97
2023-05-10T20:39:56.761Z,101003.88
2023-05-10T20:42:25.280Z,101007.53
2023-05-10T20:44:54.837Z,101016.75
2023-05-10T20:47:24.103Z,101016.53
2023-05-10T20:49:52.441Z,101016.91
2023-05-10T20:52:21.373Z,101025.91
2023-05-10T20:54:50.575Z,101026.97
2023-05-10T20:57:18.993Z,101023.56
2023-05-10T20:59:47.170Z,101020.09
2023-05-10T21:02:19.584Z,101020.16
2023-05-10T21:04:48.712Z,101016.63
2023-05-10T21:07:18.397Z,101024.44
2023-05-10T21:09:46.652Z,101018.47
2023-05-10T21:12:14.947Z,101019.38
2023-05-10T21:14:44.381Z,101018.47
2023-05-10T21:17:12.648Z,101013.34
2023-05-10T21:19:42.200Z,101014.09
2023-05-10T21:22:11.218Z,101010.66
2023-05-10T21:24:39.477Z,101015.94
2023-05-10T21:27:09.136Z,101010.72
2023-05-10T21:29:37.374Z,101011.66
2023-05-10T21:32:05.858Z,101005.59
2023-05-10T21:34:34.144Z,101013.44
2023-05-10T21:37:03.872Z,101005.72
2023-05-10T21:39:32.145Z,101012.00
2023-05-10T21:42:00.794Z,101004.25
2023-05-10T21:44:28.975Z,101006.78
2023-05-10T21:46:58.584Z,101003.00
2023-05-10T21:49:27.133Z,101002.06
2023-05-10T21:51:55.434Z,101005.38
2023-05-10T21:54:26.439Z,101004.41
2023-05-10T21:56:54.744Z,101008.81
2023-05-10T21:59:23.369Z,101003.69
2023-05-10T22:01:51.704Z,101004.53
2023-05-10T22:04:19.911Z,101007.25
2023-05-10T22:06:49.157Z,101002.94
2023-05-10T22:09:18.034Z,101002.09
2023-05-10T22:11:48.792Z,101008.22
2023-05-10T22:14:17.052Z,101006.59
2023-05-10T22:16:45.944Z,100997.28
2023-05-10T22:19:14.242Z,101010.72
2023-05-10T22:21:42.668Z,101006.63
2023-05-10T22:24:10.940Z,101005.09
2023-05-10T22:26:39.310Z,101003.53
2023-05-10T22:29:08.899Z,101005.41
2023-05-10T22:31:37.534Z,101004.66
2023-05-10T22:34:05.937Z,101001.22
2023-05-10T22:36:34.196Z,101002.09
2023-05-10T22:39:02.623Z,100996.16
2023-05-10T22:41:32.701Z,101001.44
2023-05-10T22:44:00.957Z,100999.59
2023-05-10T22:46:30.716Z,100992.66
2023-05-10T22:49:00.046Z,100992.78
2023-05-10T22:51:28.704Z,100985.81
2023-05-10T22:53:56.890Z,100987.47
2023-05-10T22:56:25.446Z,100989.31
2023-05-10T22:58:53.682Z,100986.72
2023-05-10T23:01:22.056Z,100989.25
2023-05-10T23:03:51.749Z,100988.28
2023-05-10T23:06:20.030Z,100982.28
2023-05-10T23:08:48.229Z,100982.28
2023-05-10T23:11:17.796Z,100991.03
2023-05-10T23:13:45.981Z,100988.34
2023-05-10T23:16:14.322Z,100989.06
2023-05-10T23:18:42.752Z,100990.78
2023-05-10T23:21:12.457Z,100993.38
2023-05-10T23:23:40.800Z,100987.25
2023-05-10T23:26:09.495Z,100984.59
2023-05-10T23:28:38.088Z,100983.00
2023-05-10T23:31:06.654Z,100981.25
2023-05-10T23:33:35.391Z,100987.38
2023-05-10T23:36:03.595Z,100983.09
2023-05-10T23:38:33.321Z,100979.50
2023-05-10T23:41:01.556Z,100977.88
2023-05-10T23:43:29.785Z,100972.59
2023-05-10T23:45:59.473Z,100978.72
2023-05-10T23:48:28.084Z,100970.06
2023-05-10T23:50:56.382Z,100971.75
2023-05-10T23:53:24.758Z,100974.38
2023-05-10T23:55:55.492Z,100976.97
2023-05-10T23:58:23.722Z,100973.44
